Time;durP1;ratioP1;P1;durP2;ratioP2;P2;SDS_P1;SDS_P2;PMS_P1;PMS_P2;Temp;Humidity;BMP_temperature;BMP_pressure;BME280_temperature;BME280_humidity;BME280_pressure;Samples;Min_cycle;Max_cycle;Signal;HPM_P1;HPM_P2
2023/12/28 00:02:18;;;;;;;38.97;29.10;;;;;;;5.32;64.95;100720.78;4451224;32;20164;-75
2023/12/28 00:04:48;;;;;;;41.05;31.35;;;;;;;5.21;65.14;100728.16;4451433;32;20168;-75
2023/12/28 00:07:18;;;;;;;47.78;32.70;;;;;;;5.27;65.07;100719.22;4450156;32;20180;-75
2023/12/28 00:09:47;;;;;;;40.12;29.45;;;;;;;5.21;65.22;100728.16;4451437;32;20151;-75
2023/12/28 00:12:16;;;;;;;56.80;43.58;;;;;;;5.27;65.04;100727.12;4451536;32;20151;-75
2023/12/28 00:14:46;;;;;;;54.95;40.25;;;;;;;5.48;64.57;100731.63;4450517;32;20183;-75
2023/12/28 00:17:15;;;;;;;46.47;32.38;;;;;;;5.41;64.85;100722.22;4451359;32;20563;-75
2023/12/28 00:19:45;;;;;;;40.60;30.90;;;;;;;5.34;65.18;100723.34;4451385;32;20179;-76
2023/12/28 00:22:14;;;;;;;33.25;23.60;;;;;;;5.32;65.22;100723.41;4451404;32;20187;-75
2023/12/28 00:24:45;;;;;;;34.00;26.58;;;;;;;5.58;64.38;100725.13;4451337;32;20718;-75
2023/12/28 00:27:14;;;;;;;41.63;27.92;;;;;;;5.45;64.88;100721.22;4451364;32;20168;-75
2023/12/28 00:29:43;;;;;;;40.47;26.85;;;;;;;5.41;64.72;100733.59;4452073;32;20148;-76
2023/12/28 00:34:48;;;;;;;33.25;25.40;;;;;;;5.37;64.45;100728.50;4451413;32;20176;-75
2023/12/28 00:37:17;;;;;;;33.92;25.92;;;;;;;5.79;62.88;100731.38;4451219;32;20143;-75
2023/12/28 00:39:49;;;;;;;35.13;26.73;;;;;;;5.53;63.86;100721.78;4451210;32;20171;-75
2023/12/28 00:42:19;;;;;;;34.00;24.75;;;;;;;5.25;64.68;100723.66;4451176;32;20718;-75
2023/12/28 00:44:54;;;;;;;30.35;24.17;;;;;;;5.29;64.79;100741.03;4451225;32;20140;-75
2023/12/28 00:47:24;;;;;;;34.75;24.23;;;;;;;5.06;65.57;100739.19;4451534;32;20144;-75
2023/12/28 00:49:53;;;;;;;38.67;26.60;;;;;;;5.14;65.03;100737.16;4451252;32;20546;-75
2023/12/28 00:52:23;;;;;;;40.12;26.62;;;;;;;5.21;64.19;100743.06;4444682;32;20159;-75
2023/12/28 00:54:54;;;;;;;34.50;26.48;;;;;;;5.15;64.16;100739.75;4451082;32;20156;-75
2023/12/28 00:57:23;;;;;;;33.22;23.73;;;;;;;5.05;64.37;100740.09;4449706;32;20183;-75
2023/12/28 00:59:52;;;;;;;27.33;21.02;;;;;;;5.11;63.87;100743.41;4451029;32;20152;-75
2023/12/28 01:02:23;;;;;;;26.92;21.83;;;;;;;4.94;64.28;100740.44;4451318;32;20424;-75
2023/12/28 01:04:52;;;;;;;28.73;21.35;;;;;;;5.00;64.16;100740.25;4451271;32;20161;-75
2023/12/28 01:07:21;;;;;;;22.40;18.65;;;;;;;5.14;63.75;100734.53;4436708;32;20163;-75
2023/12/28 01:09:54;;;;;;;29.48;20.60;;;;;;;5.02;63.74;100748.94;4450985;32;20159;-75
2023/12/28 01:12:29;;;;;;;28.27;20.77;;;;;;;5.17;63.46;100747.56;4450855;32;20621;-75
2023/12/28 01:14:58;;;;;;;24.58;19.73;;;;;;;5.09;63.30;100745.19;4450912;32;20152;-75
2023/12/28 01:17:28;;;;;;;24.95;19.50;;;;;;;4.94;64.03;100750.94;4451135;32;20179;-75
2023/12/28 01:20:04;;;;;;;27.08;19.75;;;;;;;4.85;64.31;100753.88;4450558;32;20148;-75
2023/12/28 01:22:39;;;;;;;22.85;19.12;;;;;;;5.18;63.53;100750.13;4446191;32;20180;-75
2023/12/28 01:25:09;;;;;;;37.58;22.23;;;;;;;4.73;64.92;100749.03;4450782;32;20163;-75
2023/12/28 01:27:42;;;;;;;26.90;20.37;;;;;;;4.71;65.22;100749.06;4450762;32;20176;-75
2023/12/28 01:30:11;;;;;;;27.42;20.20;;;;;;;4.90;64.66;100746.72;4449063;32;20214;-75
2023/12/28 01:32:41;;;;;;;23.45;19.40;;;;;;;4.82;64.67;100732.97;4446735;32;20135;-75
2023/12/28 01:35:10;;;;;;;25.23;19.12;;;;;;;5.09;63.79;100737.31;4450654;32;20176;-75
2023/12/28 01:37:41;;;;;;;29.25;20.05;;;;;;;4.73;64.72;100730.66;4450464;32;20176;-75
2023/12/28 01:40:12;;;;;;;29.70;19.12;;;;;;;4.79;64.82;100726.06;4449047;32;20509;-75
2023/12/28 01:42:41;;;;;;;25.25;18.50;;;;;;;4.75;64.70;100720.94;4446196;32;20151;-75
2023/12/28 01:45:11;;;;;;;26.00;20.27;;;;;;;5.04;63.41;100723.50;4450677;32;20215;-75
2023/12/28 01:47:41;;;;;;;27.37;19.20;;;;;;;4.74;64.55;100714.84;4450799;32;20168;-75
2023/12/28 01:50:10;;;;;;;29.52;21.40;;;;;;;4.61;65.18;100724.00;4450390;32;20175;-75
2023/12/28 01:52:41;;;;;;;25.10;20.70;;;;;;;4.41;65.78;100722.00;4450465;32;20167;-75
2023/12/28 01:55:12;;;;;;;25.00;20.67;;;;;;;4.58;65.31;100727.59;4450368;32;20164;-75
2023/12/28 01:57:42;;;;;;;26.70;20.90;;;;;;;4.57;65.44;100722.41;4450337;32;20528;-75
2023/12/28 02:00:15;;;;;;;27.27;20.20;;;;;;;4.59;65.46;100723.19;4450174;32;20223;-75
2023/12/28 02:02:46;;;;;;;28.02;20.83;;;;;;;4.58;65.45;100718.84;4450856;32;20529;-75
2023/12/28 02:05:16;;;;;;;22.92;19.60;;;;;;;4.50;65.45;100702.50;4453571;32;20164;-75
2023/12/28 02:07:46;;;;;;;24.17;18.58;;;;;;;4.56;65.15;100697.91;4453905;32;20148;-75
2023/12/28 02:10:16;;;;;;;24.85;20.05;;;;;;;4.92;64.26;100700.25;4455373;32;20159;-75
2023/12/28 02:12:46;;;;;;;25.00;19.83;;;;;;;4.89;64.59;100690.69;4452308;32;20183;-75
2023/12/28 02:15:15;;;;;;;24.30;19.37;;;;;;;4.93;64.81;100696.72;4452463;32;20437;-75
2023/12/28 02:17:53;;;;;;;24.37;19.12;;;;;;;4.63;65.75;100702.06;4452546;32;20152;-75
2023/12/28 02:20:25;;;;;;;28.60;19.25;;;;;;;4.89;65.16;100701.22;4452094;32;20179;-75
2023/12/28 02:22:57;;;;;;;21.87;17.80;;;;;;;4.82;65.25;100690.97;4452102;32;20155;-75
2023/12/28 02:25:28;;;;;;;24.08;18.58;;;;;;;4.74;65.41;100693.81;4452172;32;20149;-75
2023/12/28 02:27:58;;;;;;;25.42;17.98;;;;;;;4.81;65.30;100691.88;4452150;32;20155;-75
2023/12/28 02:30:33;;;;;;;24.12;18.58;;;;;;;4.78;65.15;100687.56;4452622;32;20164;-75
2023/12/28 02:33:12;;;;;;;23.02;18.85;;;;;;;4.67;65.49;100687.94;4453047;32;20163;-75
2023/12/28 02:35:45;;;;;;;24.58;18.77;;;;;;;4.66;65.45;100680.94;4436352;32;20262;-75
2023/12/28 02:38:17;;;;;;;23.45;18.95;;;;;;;4.60;65.48;100682.94;4451343;32;20607;-75
2023/12/28 02:40:50;;;;;;;25.93;19.70;;;;;;;4.53;65.58;100674.37;4446955;32;20532;-75
2023/12/28 02:43:19;;;;;;;23.70;20.23;;;;;;;4.48;65.67;100671.06;4451795;32;20263;-75
2023/12/28 02:45:49;;;;;;;25.08;18.30;;;;;;;4.68;64.96;100671.28;4452082;32;20143;-75
2023/12/28 02:48:18;;;;;;;27.48;17.12;;;;;;;4.73;64.65;100670.25;4452008;32;20528;-75
2023/12/28 02:50:47;;;;;;;27.40;19.58;;;;;;;4.54;64.59;100673.47;4447012;32;20406;-75
2023/12/28 02:53:16;;;;;;;24.20;18.35;;;;;;;4.33;65.28;100671.53;4451320;32;20198;-75
2023/12/28 02:55:47;;;;;;;24.55;18.80;;;;;;;4.65;64.33;100666.12;4451888;32;20176;-75
2023/12/28 02:58:17;;;;;;;22.83;18.35;;;;;;;4.59;64.47;100671.59;4452036;32;20435;-75
2023/12/28 03:00:46;;;;;;;25.45;17.73;;;;;;;4.48;64.80;100670.22;4451968;32;20397;-75
2023/12/28 03:03:15;;;;;;;23.05;17.27;;;;;;;4.60;64.47;100664.56;4452236;32;20156;-75
2023/12/28 03:05:44;;;;;;;22.58;17.17;;;;;;;4.52;64.79;100658.72;4452248;32;20172;-75
2023/12/28 03:08:13;;;;;;;24.98;17.15;;;;;;;4.62;64.37;100655.72;4451857;32;20151;-75
2023/12/28 03:10:43;;;;;;;24.30;17.15;;;;;;;4.48;64.71;100652.69;4451854;32;20176;-75
2023/12/28 03:13:14;;;;;;;23.87;17.90;;;;;;;4.59;64.50;100662.81;4451922;32;20449;-75
2023/12/28 03:15:44;;;;;;;23.15;18.05;;;;;;;4.55;64.62;100654.19;4451837;32;20197;-75
2023/12/28 03:18:14;;;;;;;28.05;20.48;;;;;;;4.42;64.98;100656.34;4451832;32;20147;-75
2023/12/28 03:20:43;;;;;;;19.87;16.95;;;;;;;4.39;64.95;100652.97;4451225;32;20435;-74
2023/12/28 03:23:12;;;;;;;21.73;17.83;;;;;;;4.28;65.09;100649.84;4451822;32;20180;-75
2023/12/28 03:25:42;;;;;;;21.60;16.35;;;;;;;4.46;64.48;100643.16;4451659;32;20152;-75
2023/12/28 03:28:11;;;;;;;22.30;17.20;;;;;;;4.45;64.45;100642.28;4451762;32;20179;-75
2023/12/28 03:30:41;;;;;;;25.67;17.75;;;;;;;4.27;64.84;100638.47;4437400;32;20195;-75
2023/12/28 03:33:11;;;;;;;27.33;20.70;;;;;;;4.30;64.79;100634.91;4452120;32;20245;-74
2023/12/28 03:35:41;;;;;;;23.87;16.48;;;;;;;4.18;64.96;100630.91;4455796;32;20535;-74
2023/12/28 03:38:10;;;;;;;20.98;18.08;;;;;;;4.07;65.44;100623.34;4455328;32;20167;-74
2023/12/28 03:40:41;;;;;;;23.55;17.95;;;;;;;4.12;65.37;100636.34;4441030;32;20156;-74
2023/12/28 03:43:11;;;;;;;21.42;16.77;;;;;;;4.10;65.17;100633.75;4454147;32;20180;-75
2023/12/28 03:45:42;;;;;;;25.73;18.33;;;;;;;4.16;65.02;100623.09;4455225;32;20586;-74
2023/12/28 03:48:11;;;;;;;18.75;16.15;;;;;;;4.27;64.61;100617.47;4455091;32;20524;-74
2023/12/28 03:50:43;;;;;;;22.00;17.60;;;;;;;4.08;64.95;100617.22;4455829;32;20175;-74
2023/12/28 03:53:13;;;;;;;20.98;18.15;;;;;;;4.21;64.41;100615.06;4440041;32;20215;-74
2023/12/28 03:55:43;;;;;;;27.33;18.23;;;;;;;4.12;64.64;100612.75;4453494;32;20168;-75
2023/12/28 03:58:11;;;;;;;24.08;17.65;;;;;;;3.97;65.08;100600.97;4455051;32;20538;-74
2023/12/28 04:00:42;;;;;;;20.75;16.60;;;;;;;4.15;64.56;100599.50;4449443;32;20196;-75
2023/12/28 04:03:12;;;;;;;21.12;16.45;;;;;;;4.19;64.45;100603.75;4453470;32;20155;-75
2023/12/28 04:05:41;;;;;;;23.70;17.37;;;;;;;4.08;64.69;100608.47;4451905;32;20140;-75
2023/12/28 04:08:11;;;;;;;24.20;18.48;;;;;;;4.21;64.78;100601.97;4451667;32;20180;-75
2023/12/28 04:10:40;;;;;;;23.45;17.90;;;;;;;4.19;65.24;100612.47;4451955;32;20206;-75
2023/12/28 04:13:09;;;;;;;23.10;17.27;;;;;;;4.27;65.35;100608.75;4436462;32;20177;-75
2023/12/28 04:15:38;;;;;;;19.75;15.85;;;;;;;4.36;65.26;100605.88;4451620;32;20159;-75
2023/12/28 04:18:09;;;;;;;22.55;16.75;;;;;;;4.19;65.37;100604.59;4451389;32;20144;-75
2023/12/28 04:20:39;;;;;;;22.90;18.00;;;;;;;4.27;64.88;100607.00;4447197;32;20165;-75
2023/12/28 04:23:09;;;;;;;22.95;17.70;;;;;;;4.16;65.04;100609.13;4450072;32;20171;-75
2023/12/28 04:25:38;;;;;;;22.65;16.45;;;;;;;4.21;64.79;100601.97;4452452;32;20163;-75
2023/12/28 04:28:08;;;;;;;22.65;17.08;;;;;;;4.19;64.68;100590.63;4455223;32;20163;-75
2023/12/28 04:30:38;;;;;;;25.42;17.52;;;;;;;4.25;65.22;100597.47;4451248;32;20152;-75
2023/12/28 04:33:08;;;;;;;23.55;18.17;;;;;;;4.03;65.95;100592.03;4454447;32;20136;-74
2023/12/28 04:35:38;;;;;;;21.85;17.02;;;;;;;4.31;65.34;100592.00;4455745;32;20183;-75
2023/12/28 04:38:09;;;;;;;27.13;16.45;;;;;;;4.04;66.30;100581.50;4455448;32;20151;-75
2023/12/28 04:40:39;;;;;;;28.35;19.58;;;;;;;4.34;65.63;100579.66;4455649;32;20167;-75
2023/12/28 04:43:08;;;;;;;27.60;18.92;;;;;;;4.22;66.13;100576.59;4455848;32;20425;-75
2023/12/28 04:45:38;;;;;;;29.58;20.15;;;;;;;4.22;66.44;100584.44;4451585;32;20513;-75
2023/12/28 04:48:11;;;;;;;21.55;18.02;;;;;;;4.12;67.13;100569.03;4451157;32;20143;-75
2023/12/28 04:50:40;;;;;;;26.87;18.67;;;;;;;4.00;67.49;100574.66;4451513;32;20187;-75
2023/12/28 04:53:10;;;;;;;24.27;18.23;;;;;;;4.30;66.70;100574.56;4451420;32;20151;-75
2023/12/28 04:55:39;;;;;;;25.50;18.58;;;;;;;4.21;67.17;100580.97;4451215;32;20183;-75
2023/12/28 04:58:08;;;;;;;26.25;18.80;;;;;;;4.49;66.39;100565.19;4451252;32;20144;-75
2023/12/28 05:00:37;;;;;;;22.87;17.17;;;;;;;4.61;66.22;100574.41;4451113;32;20494;-75
2023/12/28 05:03:11;;;;;;;28.95;18.17;;;;;;;4.76;65.99;100568.63;4451109;32;20175;-75
2023/12/28 05:05:41;;;;;;;29.65;18.95;;;;;;;4.35;67.55;100580.50;4451503;32;20134;-75
2023/12/28 05:08:10;;;;;;;24.17;18.27;;;;;;;4.09;68.66;100576.13;4451184;32;20151;-75
2023/12/28 05:10:39;;;;;;;27.00;18.40;;;;;;;4.28;68.07;100577.25;4450944;32;20156;-75
2023/12/28 05:13:08;;;;;;;28.25;19.83;;;;;;;4.61;67.04;100572.63;4450956;32;20150;-75
2023/12/28 05:15:37;;;;;;;25.02;17.77;;;;;;;4.32;67.79;100581.50;4451239;32;20156;-75
2023/12/28 05:18:11;;;;;;;28.98;19.02;;;;;;;4.43;67.18;100576.75;4450870;32;20148;-75
2023/12/28 05:20:41;;;;;;;26.52;18.25;;;;;;;4.28;67.80;100581.62;4451265;32;20552;-75
2023/12/28 05:23:10;;;;;;;23.95;18.02;;;;;;;4.30;67.60;100591.16;4450842;32;20155;-75
2023/12/28 05:25:39;;;;;;;22.85;18.67;;;;;;;4.34;67.17;100594.53;4450798;32;20152;-75
2023/12/28 05:28:09;;;;;;;25.77;17.23;;;;;;;4.49;66.37;100590.56;4450883;32;20156;-75
2023/12/28 05:30:38;;;;;;;27.48;20.02;;;;;;;4.55;65.76;100585.09;4450712;32;20188;-75
2023/12/28 05:33:07;;;;;;;27.20;21.17;;;;;;;4.39;65.50;100593.47;4452256;32;20148;-75
2023/12/28 05:35:40;;;;;;;26.00;18.83;;;;;;;4.18;65.71;100588.94;4452065;32;20117;-75
2023/12/28 05:38:09;;;;;;;26.00;19.75;;;;;;;4.33;64.57;100587.59;4450629;32;20153;-75
2023/12/28 05:40:39;;;;;;;23.58;18.33;;;;;;;4.14;65.05;100584.69;4450486;32;20179;-75
2023/12/28 05:43:08;;;;;;;23.52;18.35;;;;;;;4.14;65.12;100590.78;4450653;32;20472;-75
2023/12/28 05:45:37;;;;;;;28.50;19.02;;;;;;;4.02;65.51;100591.19;4452509;32;20562;-75
2023/12/28 05:48:07;;;;;;;25.08;18.52;;;;;;;3.82;65.97;100602.28;4452362;32;20484;-75
2023/12/28 05:50:40;;;;;;;28.12;19.92;;;;;;;4.13;64.85;100594.31;4452539;32;20156;-75
2023/12/28 05:53:13;;;;;;;31.77;20.02;;;;;;;4.24;64.27;100595.72;4452101;32;20175;-75
2023/12/28 05:55:43;;;;;;;35.25;21.42;;;;;;;4.23;63.85;100599.28;4452107;32;20156;-75
2023/12/28 05:58:12;;;;;;;30.85;21.75;;;;;;;3.77;64.64;100616.44;4452173;32;20121;-75
2023/12/28 06:00:41;;;;;;;24.05;18.12;;;;;;;3.42;66.06;100602.59;4451975;32;20728;-75
2023/12/28 06:03:17;;;;;;;25.88;20.10;;;;;;;3.45;66.33;100599.91;4452081;32;20151;-75
2023/12/28 06:05:47;;;;;;;24.40;19.62;;;;;;;3.66;65.69;100591.41;4452626;32;20156;-75
2023/12/28 06:08:17;;;;;;;29.52;19.15;;;;;;;3.70;65.58;100590.41;4452026;32;20198;-75
2023/12/28 06:10:46;;;;;;;26.17;19.00;;;;;;;3.66;65.67;100598.41;4452232;32;20164;-75
2023/12/28 06:13:15;;;;;;;27.37;20.37;;;;;;;3.65;65.54;100599.31;4452141;32;20619;-75
2023/12/28 06:15:44;;;;;;;43.35;27.65;;;;;;;3.76;64.90;100594.62;4451922;32;20556;-75
2023/12/28 06:18:15;;;;;;;42.67;30.12;;;;;;;3.82;64.16;100601.44;4451864;32;20191;-75
2023/12/28 06:20:45;;;;;;;35.50;27.13;;;;;;;3.48;65.24;100609.41;4452396;32;20168;-75
2023/12/28 06:23:16;;;;;;;38.85;28.95;;;;;;;3.47;65.23;100600.69;4451730;32;20179;-75
2023/12/28 06:25:45;;;;;;;33.75;25.60;;;;;;;3.60;64.92;100601.19;4451823;32;20168;-75
2023/12/28 06:28:15;;;;;;;29.35;23.95;;;;;;;3.50;65.16;100587.53;4437086;32;20464;-75
2023/12/28 06:30:44;;;;;;;31.35;24.23;;;;;;;3.58;64.85;100590.78;4447009;32;20677;-76
2023/12/28 06:33:21;;;;;;;31.77;22.52;;;;;;;3.60;64.70;100577.59;4451384;32;20156;-75
2023/12/28 06:35:53;;;;;;;29.25;22.83;;;;;;;3.64;64.57;100584.47;4452449;32;20169;-76
2023/12/28 06:38:24;;;;;;;30.30;22.27;;;;;;;3.55;64.67;100588.22;4451776;32;20167;-75
2023/12/28 06:40:53;;;;;;;29.75;22.08;;;;;;;3.53;64.61;100600.53;4446060;32;20176;-75
2023/12/28 06:43:23;;;;;;;28.98;20.27;;;;;;;3.83;63.05;100616.25;4445551;32;20164;-75
2023/12/28 06:45:54;;;;;;;25.70;18.95;;;;;;;3.68;62.66;100618.44;4451983;32;20497;-75
2023/12/28 06:48:28;;;;;;;30.47;21.77;;;;;;;3.38;63.91;100627.16;4452120;32;20440;-75
2023/12/28 06:50:57;;;;;;;26.27;19.62;;;;;;;3.49;64.33;100634.75;4445530;32;20151;-75
2023/12/28 06:53:31;;;;;;;29.33;17.80;;;;;;;3.75;64.53;100637.44;4452196;32;20128;-75
2023/12/28 06:56:05;;;;;;;25.40;19.52;;;;;;;3.88;64.63;100641.44;4451662;32;20163;-75
2023/12/28 06:58:34;;;;;;;27.80;19.17;;;;;;;4.01;64.47;100644.53;4451840;32;20172;-75
2023/12/28 07:01:04;;;;;;;24.55;17.50;;;;;;;4.42;62.49;100629.25;4445360;32;20160;-75
2023/12/28 07:03:37;;;;;;;30.37;19.33;;;;;;;4.18;62.90;100637.00;4451776;32;20184;-75
2023/12/28 07:06:14;;;;;;;25.25;18.80;;;;;;;3.86;63.42;100632.75;4452071;32;20132;-75
2023/12/28 07:08:45;;;;;;;23.45;18.35;;;;;;;3.76;63.99;100631.31;4452119;32;20148;-75
2023/12/28 07:11:15;;;;;;;26.50;20.10;;;;;;;3.73;64.35;100626.16;4445426;32;20230;-75
2023/12/28 07:13:44;;;;;;;31.95;19.15;;;;;;;3.71;64.54;100622.72;4451718;32;20163;-75
2023/12/28 07:16:13;;;;;;;27.55;19.90;;;;;;;3.79;64.55;100623.34;4451660;32;20547;-75
2023/12/28 07:18:42;;;;;;;24.80;18.00;;;;;;;3.79;64.62;100622.47;4451765;32;20148;-75
2023/12/28 07:21:12;;;;;;;109.43;62.30;;;;;;;3.69;65.33;100622.78;4445371;32;20240;-75
2023/12/28 07:23:41;;;;;;;34.05;23.73;;;;;;;3.89;64.84;100627.41;4451762;32;20164;-75
2023/12/28 07:26:11;;;;;;;30.60;22.13;;;;;;;3.90;64.85;100631.75;4451706;32;20168;-75
2023/12/28 07:28:42;;;;;;;27.80;21.48;;;;;;;4.35;63.44;100625.09;4451557;32;20783;-75
2023/12/28 07:31:11;;;;;;;26.87;20.92;;;;;;;3.96;64.59;100635.97;4445249;32;20528;-75
2023/12/28 07:33:44;;;;;;;28.58;19.87;;;;;;;3.95;64.89;100639.47;4451673;32;20164;-75
2023/12/28 07:36:22;;;;;;;24.98;20.92;;;;;;;3.92;65.25;100637.81;4451626;32;20143;-75
2023/12/28 07:38:52;;;;;;;35.00;22.83;;;;;;;4.00;65.18;100650.69;4451721;32;20144;-74
2023/12/28 07:41:22;;;;;;;31.90;23.42;;;;;;;4.07;65.21;100646.09;4445747;32;20440;-75
2023/12/28 07:43:52;;;;;;;30.65;21.58;;;;;;;4.14;65.28;100650.25;4437235;32;20175;-75
2023/12/28 07:46:21;;;;;;;37.20;25.50;;;;;;;4.15;65.42;100652.81;4451711;32;20175;-74
2023/12/28 07:48:50;;;;;;;38.13;25.42;;;;;;;4.16;65.57;100651.94;4451642;32;20164;-74
2023/12/28 07:51:20;;;;;;;31.90;21.62;;;;;;;4.39;65.43;100648.56;4445187;32;20543;-74
2023/12/28 07:53:49;;;;;;;28.85;21.70;;;;;;;4.98;65.02;100650.13;4451815;32;20149;-74
2023/12/28 07:56:18;;;;;;;29.63;21.05;;;;;;;5.56;64.29;100642.81;4436701;32;20168;-74
2023/12/28 07:58:49;;;;;;;26.48;19.77;;;;;;;6.26;63.28;100634.06;4451721;32;20164;-74
2023/12/28 08:01:17;;;;;;;28.77;22.00;;;;;;;6.82;61.54;100630.03;4445040;32;20167;-75
2023/12/28 08:03:56;;;;;;;31.42;23.20;;;;;;;7.44;59.07;100626.41;4451436;32;20465;-75
2023/12/28 08:06:25;;;;;;;34.60;28.50;;;;;;;7.57;57.55;100624.09;4450871;32;20152;-75
2023/12/28 08:08:55;;;;;;;42.62;31.70;;;;;;;8.58;55.50;100620.19;4451193;32;20156;-74
2023/12/28 08:11:24;;;;;;;46.72;36.10;;;;;;;9.52;52.75;100612.75;4445140;32;20175;-75
2023/12/28 08:13:55;;;;;;;37.97;31.55;;;;;;;10.56;50.62;100612.25;4451229;32;20171;-75
2023/12/28 08:16:24;;;;;;;36.22;29.48;;;;;;;11.57;47.39;100609.72;4451278;32;20188;-75
2023/12/28 08:18:54;;;;;;;35.83;28.70;;;;;;;12.35;44.79;100597.72;4451255;32;20144;-75
2023/12/28 08:21:34;;;;;;;38.20;27.75;;;;;;;13.29;43.92;100591.34;4444860;32;20191;-75
2023/12/28 08:24:04;;;;;;;37.45;28.48;;;;;;;13.77;41.21;100595.97;4451156;32;20152;-75
2023/12/28 08:26:36;;;;;;;35.75;27.58;;;;;;;14.20;40.56;100598.19;4451708;32;20160;-75
2023/12/28 08:29:06;;;;;;;33.17;27.15;;;;;;;14.72;39.47;100586.34;4451377;32;20539;-75
2023/12/28 08:31:36;;;;;;;32.80;25.88;;;;;;;15.07;38.81;100593.47;4434537;32;20192;-75
2023/12/28 08:34:05;;;;;;;26.90;23.52;;;;;;;15.66;37.80;100594.16;4449453;32;20483;-75
2023/12/28 08:36:35;;;;;;;29.08;24.33;;;;;;;15.92;36.87;100604.62;4451398;32;20160;-75
2023/12/28 08:39:08;;;;;;;30.33;25.15;;;;;;;16.42;36.36;100605.81;4451143;32;20179;-75
2023/12/28 08:41:38;;;;;;;29.48;23.98;;;;;;;16.63;35.90;100599.66;4434700;32;20152;-74
2023/12/28 08:44:08;;;;;;;28.67;24.35;;;;;;;16.71;35.76;100597.22;4449553;32;20175;-74
2023/12/28 08:46:37;;;;;;;25.15;21.77;;;;;;;17.04;35.42;100600.72;4451146;32;20171;-74
2023/12/28 08:49:06;;;;;;;28.38;23.60;;;;;;;17.12;35.27;100595.56;4451186;32;20183;-74
2023/12/28 08:51:36;;;;;;;24.27;19.85;;;;;;;17.38;35.04;100595.97;4444724;32;20160;-74
2023/12/28 08:54:05;;;;;;;22.30;18.37;;;;;;;17.40;34.64;100600.22;4451120;32;20152;-73
2023/12/28 08:56:34;;;;;;;21.98;15.98;;;;;;;17.38;34.66;100601.34;4451412;32;20163;-74
2023/12/28 08:59:03;;;;;;;20.27;15.88;;;;;;;16.79;35.48;100599.25;4451059;32;20168;-74
2023/12/28 09:01:34;;;;;;;24.60;17.55;;;;;;;16.36;35.80;100601.00;4444512;32;20535;-74
2023/12/28 09:04:08;;;;;;;21.92;18.42;;;;;;;15.91;36.82;100600.22;4450966;32;20182;-74
2023/12/28 09:06:37;;;;;;;24.35;18.42;;;;;;;16.12;36.72;100600.34;4451263;32;20163;-74
2023/12/28 09:09:06;;;;;;;21.45;15.88;;;;;;;15.64;37.33;100598.78;4450896;32;20439;-73
2023/12/28 09:11:36;;;;;;;23.33;16.80;;;;;;;15.83;37.52;100603.50;4444863;32;20159;-74
2023/12/28 09:14:05;;;;;;;20.60;16.98;;;;;;;15.61;37.90;100604.34;4450855;32;20451;-74
2023/12/28 09:16:36;;;;;;;18.73;16.73;;;;;;;15.39;38.07;100605.19;4450840;32;20160;-74
2023/12/28 09:19:09;;;;;;;21.95;18.20;;;;;;;15.08;39.17;100595.16;4449585;32;20164;-73
2023/12/28 09:21:38;;;;;;;18.62;15.30;;;;;;;15.53;38.69;100600.59;4444384;32;20540;-75
2023/12/28 09:24:08;;;;;;;24.85;17.17;;;;;;;15.26;45.83;100591.09;4450678;32;20144;-74
2023/12/28 09:26:42;;;;;;;20.52;15.82;;;;;;;15.92;44.89;100585.91;4451116;32;20163;-74
2023/12/28 09:29:11;;;;;;;20.15;16.35;;;;;;;16.41;40.64;100571.19;4450466;32;20196;-74
2023/12/28 09:31:42;;;;;;;20.37;16.70;;;;;;;16.36;42.40;100574.25;4444376;32;20191;-74
2023/12/28 09:34:21;;;;;;;24.15;18.80;;;;;;;16.65;39.72;100573.63;4450766;32;20175;-74
2023/12/28 09:36:58;;;;;;;19.40;16.42;;;;;;;17.32;36.26;100557.19;4451332;32;20159;-74
2023/12/28 09:39:28;;;;;;;20.60;15.65;;;;;;;17.22;35.63;100558.97;4450372;32;20152;-74
2023/12/28 09:42:05;;;;;;;23.08;17.90;;;;;;;17.47;35.22;100552.34;4444270;32;20168;-74
2023/12/28 09:44:39;;;;;;;25.65;18.15;;;;;;;16.83;36.36;100550.72;4450528;32;20183;-75
2023/12/28 09:47:12;;;;;;;25.23;19.27;;;;;;;17.30;35.50;100543.06;4450274;32;20156;-74
2023/12/28 09:49:42;;;;;;;23.10;18.02;;;;;;;17.09;36.36;100534.22;4450357;32;20187;-74
2023/12/28 09:52:12;;;;;;;20.30;17.60;;;;;;;17.25;36.05;100539.94;4443920;32;20179;-74
2023/12/28 09:54:41;;;;;;;24.15;18.35;;;;;;;17.48;35.67;100532.59;4450215;32;20171;-74
2023/12/28 09:57:12;;;;;;;22.23;18.25;;;;;;;16.71;36.51;100525.81;4450298;32;20136;-74
2023/12/28 09:59:47;;;;;;;22.77;18.33;;;;;;;16.19;37.63;100532.88;4450529;32;20179;-74
2023/12/28 10:02:18;;;;;;;23.50;17.48;;;;;;;16.90;36.62;100525.09;4443645;32;20747;-74
2023/12/28 10:04:53;;;;;;;24.92;18.70;;;;;;;16.70;36.79;100517.91;4449944;32;20175;-74
2023/12/28 10:07:28;;;;;;;24.27;17.98;;;;;;;17.03;36.38;100513.38;4450155;32;20171;-74
2023/12/28 10:09:58;;;;;;;21.75;17.08;;;;;;;16.91;37.04;100512.59;4449920;32;20163;-73
2023/12/28 10:12:27;;;;;;;28.70;18.50;;;;;;;16.95;36.81;100506.84;4444252;32;20170;-74
2023/12/28 10:14:57;;;;;;;21.62;17.40;;;;;;;16.78;36.70;100501.22;4450028;32;20136;-73
2023/12/28 10:17:28;;;;;;;26.10;19.58;;;;;;;16.90;37.25;100492.13;4450347;32;20155;-74
2023/12/28 10:20:03;;;;;;;25.27;18.67;;;;;;;16.82;37.36;100492.78;4449767;32;20168;-73
2023/12/28 10:22:36;;;;;;;24.98;18.55;;;;;;;17.24;36.69;100483.84;4445192;32;20155;-74
2023/12/28 10:25:06;;;;;;;24.52;17.27;;;;;;;17.42;36.48;100493.81;4449670;32;20175;-74
2023/12/28 10:27:39;;;;;;;24.80;17.33;;;;;;;17.92;35.85;100483.06;4449725;32;20144;-74
2023/12/28 10:30:10;;;;;;;22.02;16.98;;;;;;;17.50;36.43;100481.53;4449495;32;20152;-74
2023/12/28 10:32:42;;;;;;;22.62;18.02;;;;;;;17.64;36.23;100478.47;4447546;32;20147;-74
2023/12/28 10:35:12;;;;;;;23.30;18.33;;;;;;;17.12;36.64;100473.22;4451705;32;20164;-74
2023/12/28 10:37:43;;;;;;;22.95;17.77;;;;;;;17.08;36.76;100470.97;4451758;32;20156;-74
2023/12/28 10:40:15;;;;;;;20.00;16.60;;;;;;;17.62;36.24;100462.56;4449679;32;20151;-74
2023/12/28 10:42:52;;;;;;;22.80;17.40;;;;;;;17.36;36.58;100459.50;4433622;32;20263;-74
2023/12/28 10:45:26;;;;;;;21.55;17.27;;;;;;;17.47;36.20;100455.03;4437634;32;20184;-73
2023/12/28 10:48:08;;;;;;;21.05;15.60;;;;;;;17.83;36.30;100462.47;4451844;32;20157;-74
2023/12/28 10:50:41;;;;;;;22.30;14.07;;;;;;;18.23;35.65;100461.50;4447841;32;20184;-74
2023/12/28 10:53:22;;;;;;;18.30;13.77;;;;;;;18.04;35.98;100458.81;4450872;32;20168;-74
2023/12/28 10:56:01;;;;;;;19.98;13.60;;;;;;;17.49;36.48;100453.91;4451889;32;20171;-74
2023/12/28 10:58:40;;;;;;;17.20;13.20;;;;;;;17.84;36.04;100463.31;4452025;32;20148;-74
2023/12/28 11:01:13;;;;;;;17.05;13.38;;;;;;;17.14;37.61;100455.19;4451860;32;20183;-74
2023/12/28 11:03:47;;;;;;;18.65;14.18;;;;;;;16.33;38.93;100454.16;4451754;32;20163;-73
2023/12/28 11:06:18;;;;;;;15.52;12.60;;;;;;;16.33;39.05;100439.94;4451656;32;20160;-74
2023/12/28 11:08:54;;;;;;;18.90;14.63;;;;;;;16.35;39.03;100444.19;4452006;32;20169;-73
2023/12/28 11:11:33;;;;;;;17.83;14.13;;;;;;;16.10;39.37;100440.03;4439165;32;20456;-73
2023/12/28 11:14:11;;;;;;;21.60;15.93;;;;;;;15.71;40.51;100422.81;4451713;32;20176;-74
2023/12/28 11:16:41;;;;;;;17.90;15.77;;;;;;;15.16;41.79;100432.59;4451653;32;20252;-74
2023/12/28 11:19:13;;;;;;;23.25;15.15;;;;;;;15.23;41.73;100437.31;4451608;32;20167;-73
2023/12/28 11:21:43;;;;;;;;;;;;;;;15.29;41.52;100441.34;4445622;32;20175;-73
2023/12/28 11:24:13;;;;;;;20.45;16.12;;;;;;;15.47;41.52;100437.16;4451647;32;20029;-73
2023/12/28 11:26:43;;;;;;;21.52;15.85;;;;;;;16.05;39.91;100428.88;4452106;32;20445;-74
2023/12/28 11:29:20;;;;;;;23.33;15.98;;;;;;;15.90;40.27;100417.66;4452675;32;20140;-74
2023/12/28 11:31:52;;;;;;;22.35;16.55;;;;;;;15.58;40.95;100430.97;4445372;32;20167;-74
2023/12/28 11:34:30;;;;;;;20.73;15.70;;;;;;;15.83;40.16;100420.97;4451672;32;20164;-74